createdAt,value
2023-01-21T00:01:01.398Z,0
2023-01-21T00:03:08.708Z,0
2023-01-21T00:05:15.688Z,0
2023-01-21T00:06:18.418Z,0
2023-01-21T00:08:24.089Z,0
2023-01-21T00:10:29.666Z,0
2023-01-21T00:12:36.404Z,0
2023-01-21T00:13:39.850Z,0
2023-01-21T00:15:46.782Z,0
2023-01-21T00:17:53.371Z,0
2023-01-21T00:19:59.378Z,0
2023-01-21T00:21:01.915Z,0
2023-01-21T00:23:07.647Z,0
2023-01-21T00:25:15.023Z,0
2023-01-21T00:27:21.433Z,0
2023-01-21T00:28:24.819Z,0
2023-01-21T00:30:32.516Z,0
2023-01-21T00:32:39.935Z,0
2023-01-21T00:34:46.120Z,0
2023-01-21T00:35:49.728Z,0
2023-01-21T00:37:56.109Z,0
2023-01-21T00:40:02.765Z,0
2023-01-21T00:42:08.828Z,0
2023-01-21T00:43:12.796Z,0
2023-01-21T00:45:18.778Z,0
2023-01-21T00:47:26.095Z,0
2023-01-21T00:49:32.855Z,0
2023-01-21T00:50:35.697Z,0
2023-01-21T00:52:41.757Z,0
2023-01-21T00:54:48.310Z,0
2023-01-21T00:56:55.590Z,0
2023-01-21T00:57:59.053Z,0
2023-01-21T01:00:05.468Z,0
2023-01-21T01:02:12.502Z,0
2023-01-21T01:04:18.373Z,0
2023-01-21T01:05:21.426Z,0
2023-01-21T01:07:27.753Z,0
2023-01-21T01:09:33.931Z,0
2023-01-21T01:11:39.480Z,0
2023-01-21T01:12:43.219Z,0
2023-01-21T01:14:49.123Z,0
2023-01-21T01:16:55.140Z,0
2023-01-21T01:19:02.123Z,0
2023-01-21T01:20:05.846Z,0
2023-01-21T01:22:12.823Z,0
2023-01-21T01:24:18.374Z,0
2023-01-21T01:26:24.886Z,0
2023-01-21T01:27:27.075Z,0
2023-01-21T01:28:30.472Z,0
2023-01-21T01:29:33.191Z,0
2023-01-21T01:31:40.366Z,0
2023-01-21T01:32:43.588Z,0
2023-01-21T01:33:47.727Z,0
2023-01-21T01:34:51.384Z,0
2023-01-21T01:36:57.053Z,0
2023-01-21T01:38:00.128Z,0
2023-01-21T01:39:02.995Z,0
2023-01-21T01:40:05.807Z,0
2023-01-21T01:42:12.256Z,0
2023-01-21T01:43:15.706Z,0
2023-01-21T01:45:22.914Z,0
2023-01-21T01:47:29.297Z,0
2023-01-21T01:49:35.962Z,0
2023-01-21T01:50:39.700Z,0
2023-01-21T01:52:46.805Z,0
2023-01-21T01:54:53.057Z,0
2023-01-21T01:55:56.398Z,0
2023-01-21T01:56:59.189Z,0
2023-01-21T01:58:01.965Z,0
2023-01-21T02:00:07.306Z,0
2023-01-21T02:01:10.987Z,0
2023-01-21T02:02:14.667Z,0
2023-01-21T02:03:17.108Z,0
2023-01-21T02:05:23.001Z,0
2023-01-21T02:06:25.994Z,0
2023-01-21T02:07:29.712Z,0
2023-01-21T02:08:33.443Z,0
2023-01-21T02:10:39.184Z,0
2023-01-21T02:12:45.983Z,0
2023-01-21T02:13:49.042Z,0
2023-01-21T02:15:55.076Z,0
2023-01-21T02:18:01.658Z,0
2023-01-21T02:19:04.778Z,0
2023-01-21T02:21:10.831Z,0
2023-01-21T02:22:14.202Z,0
2023-01-21T02:24:21.089Z,0
2023-01-21T02:25:24.499Z,0
2023-01-21T02:26:27.596Z,0
2023-01-21T02:27:33.213Z,0
2023-01-21T02:28:36.272Z,0
2023-01-21T02:30:42.772Z,0
2023-01-21T02:32:48.888Z,0
2023-01-21T02:33:51.947Z,0
2023-01-21T02:35:58.437Z,0
2023-01-21T02:38:05.716Z,0
2023-01-21T02:39:08.894Z,0
2023-01-21T02:41:15.693Z,0
2023-01-21T02:42:18.962Z,0
2023-01-21T02:43:22.244Z,0
2023-01-21T02:44:25.007Z,0
2023-01-21T02:46:31.197Z,0
2023-01-21T02:47:34.584Z,0
2023-01-21T02:49:40.175Z,0
2023-01-21T02:50:43.755Z,0
2023-01-21T02:51:46.505Z,0
2023-01-21T02:52:49.980Z,0
2023-01-21T02:54:56.272Z,0
2023-01-21T02:55:59.400Z,0
2023-01-21T02:58:06.009Z,0
2023-01-21T03:00:12.474Z,0
2023-01-21T03:01:16.269Z,0
2023-01-21T03:03:22.554Z,0
2023-01-21T03:05:28.233Z,0
2023-01-21T03:06:31.272Z,0
2023-01-21T03:08:37.599Z,0
2023-01-21T03:10:43.853Z,0
2023-01-21T03:11:46.872Z,0
2023-01-21T03:13:52.120Z,0
2023-01-21T03:15:57.851Z,0
2023-01-21T03:17:00.677Z,0
2023-01-21T03:19:07.025Z,0
2023-01-21T03:20:11.560Z,0
2023-01-21T03:22:17.729Z,0
2023-01-21T03:24:25.072Z,0
2023-01-21T03:26:32.000Z,0
2023-01-21T03:27:35.064Z,0
2023-01-21T03:29:40.944Z,0
2023-01-21T03:31:48.029Z,0
2023-01-21T03:33:54.489Z,0
2023-01-21T03:34:57.591Z,0
2023-01-21T03:37:03.564Z,0
2023-01-21T03:39:10.255Z,0
2023-01-21T03:40:14.966Z,0
2023-01-21T03:42:21.395Z,0
2023-01-21T03:44:27.954Z,0
2023-01-21T03:45:31.555Z,0
2023-01-21T03:47:37.613Z,0
2023-01-21T03:48:40.985Z,0
2023-01-21T03:49:44.367Z,0
2023-01-21T03:50:47.296Z,0
2023-01-21T03:52:53.674Z,0
2023-01-21T03:53:56.491Z,0
2023-01-21T03:56:02.893Z,0
2023-01-21T03:58:09.787Z,0
2023-01-21T04:00:17.088Z,0
2023-01-21T04:01:20.793Z,0
2023-01-21T04:02:24.727Z,0
2023-01-21T04:03:28.757Z,0
2023-01-21T04:05:34.288Z,0
2023-01-21T04:06:37.361Z,0
2023-01-21T04:07:40.454Z,0
2023-01-21T04:08:43.498Z,0
2023-01-21T04:10:50.064Z,0
2023-01-21T04:12:56.568Z,0
2023-01-21T04:13:59.381Z,0
2023-01-21T04:16:10.003Z,0
2023-01-21T04:18:16.950Z,0
2023-01-21T04:20:23.454Z,0
2023-01-21T04:21:26.815Z,0
2023-01-21T04:23:32.256Z,0
2023-01-21T04:25:40.462Z,0
2023-01-21T04:27:47.443Z,0
2023-01-21T04:28:50.717Z,0
2023-01-21T04:30:57.901Z,0
2023-01-21T04:33:04.836Z,0
2023-01-21T04:35:11.698Z,0
2023-01-21T04:36:15.541Z,0
2023-01-21T04:37:18.801Z,0
2023-01-21T04:38:21.232Z,0
2023-01-21T04:40:27.550Z,0
2023-01-21T04:41:30.925Z,0
2023-01-21T04:42:33.736Z,0
2023-01-21T04:43:37.470Z,0
2023-01-21T04:45:43.463Z,0
2023-01-21T04:46:46.660Z,0
2023-01-21T04:47:49.084Z,0
2023-01-21T04:48:52.537Z,0
2023-01-21T04:50:58.800Z,0
2023-01-21T04:53:04.757Z,0
2023-01-21T04:54:07.550Z,0
2023-01-21T04:56:14.274Z,0
2023-01-21T04:58:20.721Z,0
2023-01-21T05:00:28.035Z,0
2023-01-21T05:01:32.093Z,0
2023-01-21T05:03:38.737Z,0
2023-01-21T05:05:44.797Z,0
2023-01-21T05:07:50.534Z,0
2023-01-21T05:08:53.258Z,0
2023-01-21T05:10:58.983Z,0
2023-01-21T05:13:04.952Z,0
2023-01-21T05:15:11.637Z,0
2023-01-21T05:16:14.645Z,0
2023-01-21T05:18:21.546Z,0
2023-01-21T05:20:28.168Z,0
2023-01-21T05:22:34.302Z,0
2023-01-21T05:23:37.180Z,0
2023-01-21T05:25:43.683Z,0
2023-01-21T05:27:49.569Z,0
2023-01-21T05:29:56.190Z,0
2023-01-21T05:31:00.499Z,0
2023-01-21T05:33:07.309Z,0
2023-01-21T05:35:12.566Z,0
2023-01-21T05:37:18.403Z,0
2023-01-21T05:38:21.139Z,0
2023-01-21T05:40:27.591Z,0
2023-01-21T05:42:33.869Z,0
2023-01-21T05:44:39.947Z,0
2023-01-21T05:45:42.389Z,0
2023-01-21T05:47:49.004Z,0
2023-01-21T05:49:55.935Z,0
2023-01-21T05:52:03.883Z,0
2023-01-21T05:53:06.061Z,0
2023-01-21T05:55:12.107Z,0
2023-01-21T05:57:17.627Z,0
2023-01-21T05:59:23.943Z,0
2023-01-21T06:00:27.308Z,0
2023-01-21T06:02:34.421Z,0
2023-01-21T06:04:40.764Z,0
2023-01-21T06:06:47.259Z,0
2023-01-21T06:07:49.817Z,0
2023-01-21T06:09:54.753Z,0
2023-01-21T06:12:00.099Z,0
2023-01-21T06:14:06.775Z,0
2023-01-21T06:15:10.164Z,0
2023-01-21T06:17:17.051Z,0
2023-01-21T06:19:23.932Z,0
2023-01-21T06:21:30.769Z,0
2023-01-21T06:22:34.146Z,0
2023-01-21T06:23:37.527Z,0
2023-01-21T06:24:40.503Z,0
2023-01-21T06:26:46.464Z,0
2023-01-21T06:27:49.892Z,0
2023-01-21T06:28:53.254Z,0
2023-01-21T06:29:56.098Z,0
2023-01-21T06:32:04.133Z,0
2023-01-21T06:33:07.822Z,0
2023-01-21T06:34:11.383Z,0
2023-01-21T06:35:15.091Z,0
2023-01-21T06:37:21.434Z,0
2023-01-21T06:39:28.516Z,0
2023-01-21T06:40:31.516Z,0
2023-01-21T06:42:37.703Z,0
2023-01-21T06:44:43.769Z,0
2023-01-21T06:47:04.019Z,0
2023-01-21T06:48:07.381Z,0
2023-01-21T06:49:10.411Z,0
2023-01-21T06:50:15.243Z,0
2023-01-21T06:52:21.643Z,0
2023-01-21T06:53:24.420Z,0
2023-01-21T06:54:31.547Z,0
2023-01-21T06:55:35.015Z,0
2023-01-21T06:57:40.987Z,0
2023-01-21T06:59:47.938Z,0
2023-01-21T07:00:50.947Z,0
2023-01-21T07:02:57.718Z,0
2023-01-21T07:05:05.480Z,0
2023-01-21T07:07:12.456Z,0
2023-01-21T07:08:16.116Z,0
2023-01-21T07:10:22.932Z,1
2023-01-21T07:12:29.835Z,1
2023-01-21T07:14:35.160Z,1
2023-01-21T07:15:38.165Z,1
2023-01-21T07:17:43.356Z,1
2023-01-21T07:19:49.806Z,2
2023-01-21T07:21:56.896Z,2
2023-01-21T07:23:00.168Z,2
2023-01-21T07:25:06.428Z,3
2023-01-21T07:27:13.583Z,3
2023-01-21T07:29:19.470Z,3
2023-01-21T07:30:22.571Z,3
2023-01-21T07:31:26.788Z,4
2023-01-21T07:32:30.182Z,4
2023-01-21T07:34:35.994Z,4
2023-01-21T07:35:39.476Z,4
2023-01-21T07:36:42.281Z,4
2023-01-21T07:37:46.546Z,5
2023-01-21T07:39:55.842Z,6
2023-01-21T07:42:01.644Z,6
2023-01-21T07:43:04.733Z,7
2023-01-21T07:45:11.953Z,8
2023-01-21T07:47:18.432Z,8
2023-01-21T07:49:25.014Z,8
2023-01-21T07:50:28.341Z,9
2023-01-21T07:52:34.852Z,9
2023-01-21T07:54:41.555Z,9
2023-01-21T07:56:47.685Z,9
2023-01-21T07:57:50.732Z,9
2023-01-21T07:59:56.415Z,9
2023-01-21T08:02:03.546Z,9
2023-01-21T08:04:10.462Z,9
2023-01-21T08:05:13.565Z,9
2023-01-21T08:07:19.363Z,10
2023-01-21T08:09:25.681Z,11
2023-01-21T08:11:31.679Z,13
2023-01-21T08:12:35.100Z,18
2023-01-21T08:14:41.573Z,36
2023-01-21T08:16:48.340Z,37
2023-01-21T08:18:54.499Z,37
2023-01-21T08:19:57.487Z,41
2023-01-21T08:22:04.395Z,54
2023-01-21T08:24:10.731Z,67
2023-01-21T08:26:17.616Z,63
2023-01-21T08:27:21.000Z,64
2023-01-21T08:29:26.757Z,56
2023-01-21T08:31:32.990Z,48
2023-01-21T08:33:38.919Z,48
2023-01-21T08:34:41.978Z,50
2023-01-21T08:36:48.201Z,57
2023-01-21T08:38:54.095Z,72
2023-01-21T08:41:00.368Z,76
2023-01-21T08:42:03.754Z,73
2023-01-21T08:44:09.750Z,73
2023-01-21T08:46:19.614Z,59
2023-01-21T08:48:26.027Z,61
2023-01-21T08:49:30.523Z,62
2023-01-21T08:51:36.898Z,58
2023-01-21T08:53:43.453Z,57
2023-01-21T08:55:50.163Z,58
2023-01-21T08:56:53.615Z,58
2023-01-21T08:57:56.648Z,57
2023-01-21T08:58:59.811Z,58
2023-01-21T09:01:07.299Z,49
2023-01-21T09:02:11.527Z,44
2023-01-21T09:03:14.061Z,46
2023-01-21T09:04:17.333Z,43
2023-01-21T09:06:24.420Z,43
2023-01-21T09:08:30.853Z,50
2023-01-21T09:09:34.206Z,51
2023-01-21T09:11:40.719Z,46
2023-01-21T09:13:47.997Z,40
2023-01-21T09:15:54.502Z,42
2023-01-21T09:16:57.855Z,46
2023-01-21T09:19:04.050Z,33
2023-01-21T09:21:10.837Z,38
2023-01-21T09:23:16.326Z,36
2023-01-21T09:24:19.396Z,43
2023-01-21T09:26:28.300Z,51
2023-01-21T09:28:35.945Z,47
2023-01-21T09:30:42.427Z,48
2023-01-21T09:31:45.682Z,49
2023-01-21T09:33:53.542Z,68
2023-01-21T09:35:59.971Z,94
2023-01-21T09:38:06.565Z,190
2023-01-21T09:39:09.595Z,275
2023-01-21T09:40:12.961Z,242
2023-01-21T09:41:16.265Z,198
2023-01-21T09:43:22.066Z,133
2023-01-21T09:44:25.855Z,239
2023-01-21T09:46:32.595Z,355
2023-01-21T09:48:38.921Z,299
2023-01-21T09:49:41.979Z,284
2023-01-21T09:51:47.340Z,171
2023-01-21T09:53:54.392Z,146
2023-01-21T09:54:57.009Z,125
2023-01-21T09:57:03.053Z,105
2023-01-21T09:58:06.226Z,97
2023-01-21T10:00:12.722Z,93
2023-01-21T10:02:19.094Z,92
2023-01-21T10:04:26.665Z,97
2023-01-21T10:05:32.885Z,97
2023-01-21T10:07:40.075Z,85
2023-01-21T10:09:46.598Z,74
2023-01-21T10:10:49.587Z,68
2023-01-21T10:12:55.337Z,62
2023-01-21T10:13:58.694Z,62
2023-01-21T10:16:05.719Z,58
2023-01-21T10:18:12.279Z,58
2023-01-21T10:19:15.063Z,59
2023-01-21T10:21:21.904Z,54
2023-01-21T10:23:28.581Z,53
2023-01-21T10:24:31.964Z,55
2023-01-21T10:26:38.134Z,61
2023-01-21T10:28:44.720Z,66
2023-01-21T10:29:47.790Z,60
2023-01-21T10:30:51.938Z,56
2023-01-21T10:31:56.134Z,54
2023-01-21T10:34:02.930Z,58
2023-01-21T10:36:09.549Z,57
2023-01-21T10:37:12.921Z,59
2023-01-21T10:39:20.294Z,60
2023-01-21T10:41:26.155Z,61
2023-01-21T10:42:29.220Z,78
2023-01-21T10:44:35.603Z,112
2023-01-21T10:45:38.475Z,117
2023-01-21T10:47:45.313Z,111
2023-01-21T10:49:53.414Z,108
2023-01-21T10:50:57.385Z,110
2023-01-21T10:53:03.772Z,108
2023-01-21T10:54:06.829Z,109
2023-01-21T10:55:09.813Z,118
2023-01-21T10:56:12.960Z,140
2023-01-21T10:58:18.856Z,196
2023-01-21T10:59:22.250Z,443
2023-01-21T11:01:29.328Z,339
2023-01-21T11:03:37.713Z,769
2023-01-21T11:05:44.787Z,258
2023-01-21T11:06:48.434Z,703
2023-01-21T11:08:56.001Z,618
2023-01-21T11:11:02.734Z,690
2023-01-21T11:13:09.197Z,686
2023-01-21T11:14:13.378Z,666
2023-01-21T11:16:21.687Z,647
2023-01-21T11:18:28.968Z,627
2023-01-21T11:20:36.143Z,652
2023-01-21T11:21:39.531Z,692
2023-01-21T11:23:46.118Z,733
2023-01-21T11:25:52.379Z,617
2023-01-21T11:26:56.206Z,246
2023-01-21T11:27:59.603Z,177
2023-01-21T11:29:03.344Z,142
2023-01-21T11:30:56.999Z,114
2023-01-21T11:32:02.632Z,92
2023-01-21T11:34:09.649Z,81
2023-01-21T11:36:17.564Z,76
2023-01-21T11:37:21.246Z,76
2023-01-21T11:38:24.713Z,70
2023-01-21T11:39:28.195Z,73
2023-01-21T11:41:33.557Z,44
2023-01-21T11:42:36.272Z,38
2023-01-21T11:44:42.622Z,30
2023-01-21T11:46:48.516Z,40
2023-01-21T11:47:51.926Z,32
2023-01-21T11:48:55.353Z,26
2023-01-21T11:49:58.753Z,29
2023-01-21T11:52:05.833Z,29
2023-01-21T11:53:09.634Z,40
2023-01-21T11:54:13.064Z,37
2023-01-21T11:55:16.164Z,34
2023-01-21T11:57:22.042Z,34
2023-01-21T11:58:25.434Z,39
2023-01-21T12:00:32.510Z,57
2023-01-21T12:02:38.651Z,83
2023-01-21T12:03:42.305Z,93
2023-01-21T12:04:45.410Z,103
2023-01-21T12:05:48.803Z,107
2023-01-21T12:07:55.703Z,94
2023-01-21T12:08:59.431Z,113
2023-01-21T12:10:02.028Z,133
2023-01-21T12:11:05.359Z,143
2023-01-21T12:13:11.587Z,138
2023-01-21T12:14:14.295Z,198
2023-01-21T12:16:21.044Z,272
2023-01-21T12:17:24.121Z,282
2023-01-21T12:19:30.673Z,132
2023-01-21T12:21:36.913Z,153
2023-01-21T12:22:40.687Z,266
2023-01-21T12:24:47.496Z,216
2023-01-21T12:25:50.530Z,208
2023-01-21T12:27:57.269Z,131
2023-01-21T12:30:04.165Z,147
2023-01-21T12:31:08.336Z,191
2023-01-21T12:33:13.939Z,257
2023-01-21T12:34:17.317Z,131
2023-01-21T12:36:24.551Z,290
2023-01-21T12:38:30.857Z,106
2023-01-21T12:39:33.613Z,97
2023-01-21T12:40:37.657Z,99
2023-01-21T12:41:41.166Z,102
2023-01-21T12:43:48.411Z,107
2023-01-21T12:44:52.042Z,91
2023-01-21T12:46:59.974Z,78
2023-01-21T12:49:06.591Z,138
2023-01-21T12:50:10.190Z,62
2023-01-21T12:52:17.452Z,61
2023-01-21T12:54:24.805Z,70
2023-01-21T12:55:27.869Z,78
2023-01-21T12:57:35.086Z,65
2023-01-21T12:59:42.850Z,71
2023-01-21T13:00:46.378Z,78
2023-01-21T13:01:49.594Z,77
2023-01-21T13:02:53.287Z,67
2023-01-21T13:03:57.017Z,58
2023-01-21T13:05:00.083Z,57
2023-01-21T13:06:03.256Z,57
2023-01-21T13:08:10.115Z,59
2023-01-21T13:09:13.865Z,58
2023-01-21T13:11:23.775Z,51
2023-01-21T13:13:30.137Z,50
2023-01-21T13:14:33.512Z,49
2023-01-21T13:16:40.103Z,44
2023-01-21T13:18:46.300Z,49
2023-01-21T13:19:49.491Z,51
2023-01-21T13:20:52.949Z,52
2023-01-21T13:21:56.312Z,45
2023-01-21T13:24:03.069Z,45
2023-01-21T13:25:07.148Z,38
2023-01-21T13:27:14.783Z,25
2023-01-21T13:29:21.462Z,19
2023-01-21T13:30:24.925Z,20
2023-01-21T13:32:32.285Z,16
2023-01-21T13:33:35.760Z,13
2023-01-21T13:35:44.868Z,18
2023-01-21T13:37:51.421Z,16
2023-01-21T13:38:55.451Z,18
2023-01-21T13:41:02.027Z,18
2023-01-21T13:43:09.969Z,26
2023-01-21T13:44:13.651Z,33
2023-01-21T13:46:19.585Z,52
2023-01-21T13:47:23.345Z,57
2023-01-21T13:49:29.508Z,57
2023-01-21T13:50:32.890Z,62
2023-01-21T13:52:41.344Z,71
2023-01-21T13:54:48.885Z,71
2023-01-21T13:55:52.221Z,66
2023-01-21T13:58:02.589Z,70
2023-01-21T14:00:09.176Z,68
2023-01-21T14:01:12.741Z,66
2023-01-21T14:03:20.000Z,62
2023-01-21T14:05:26.225Z,57
2023-01-21T14:06:29.504Z,56
2023-01-21T14:08:35.942Z,53
2023-01-21T14:09:41.108Z,52
2023-01-21T14:11:47.259Z,47
2023-01-21T14:12:51.005Z,43
2023-01-21T14:14:57.420Z,37
2023-01-21T14:16:04.863Z,35
2023-01-21T14:18:12.052Z,23
2023-01-21T14:20:19.942Z,27
2023-01-21T14:21:23.380Z,28
2023-01-21T14:23:29.281Z,28
2023-01-21T14:25:36.502Z,25
2023-01-21T14:26:39.518Z,26
2023-01-21T14:28:45.443Z,29
2023-01-21T14:30:52.617Z,29
2023-01-21T14:31:56.474Z,27
2023-01-21T14:34:01.763Z,28
2023-01-21T14:35:05.078Z,28
2023-01-21T14:37:11.988Z,27
2023-01-21T14:39:18.097Z,23
2023-01-21T14:40:21.415Z,25
2023-01-21T14:42:27.840Z,26
2023-01-21T14:44:34.667Z,24
2023-01-21T14:45:38.651Z,25
2023-01-21T14:47:44.796Z,24
2023-01-21T14:48:47.853Z,23
2023-01-21T14:50:54.370Z,21
2023-01-21T14:52:59.919Z,21
2023-01-21T14:54:03.389Z,20
2023-01-21T14:56:09.672Z,18
2023-01-21T14:57:21.062Z,17
2023-01-21T14:58:24.439Z,17
2023-01-21T14:59:28.106Z,15
2023-01-21T15:01:36.091Z,14
2023-01-21T15:02:43.926Z,13
2023-01-21T15:03:47.720Z,12
2023-01-21T15:04:51.019Z,12
2023-01-21T15:06:57.119Z,11
2023-01-21T15:08:00.123Z,10
2023-01-21T15:10:04.951Z,9
2023-01-21T15:12:12.116Z,4
2023-01-21T15:13:15.109Z,3
2023-01-21T15:15:22.036Z,4
2023-01-21T15:17:29.832Z,4
2023-01-21T15:18:33.303Z,3
2023-01-21T15:19:36.710Z,2
2023-01-21T15:20:41.832Z,2
2023-01-21T15:22:48.487Z,2
2023-01-21T15:23:51.788Z,2
2023-01-21T15:25:58.698Z,1
2023-01-21T15:27:03.381Z,1
2023-01-21T15:29:10.388Z,2
2023-01-21T15:31:17.338Z,2
2023-01-21T15:32:21.295Z,2
2023-01-21T15:34:28.813Z,1
2023-01-21T15:36:36.602Z,1
2023-01-21T15:38:43.239Z,0
2023-01-21T15:39:46.799Z,0
2023-01-21T15:41:53.743Z,0
2023-01-21T15:42:57.413Z,0
2023-01-21T15:45:03.638Z,0
2023-01-21T15:47:11.064Z,0
2023-01-21T15:48:15.258Z,0
2023-01-21T15:50:23.700Z,0
2023-01-21T15:52:31.304Z,0
2023-01-21T15:53:34.333Z,0
2023-01-21T15:55:41.169Z,0
2023-01-21T15:56:45.168Z,0
2023-01-21T15:57:48.405Z,0
2023-01-21T15:58:52.177Z,0
2023-01-21T15:59:55.286Z,0
2023-01-21T16:02:01.933Z,0
2023-01-21T16:04:08.053Z,0
2023-01-21T16:05:11.261Z,0
2023-01-21T16:06:14.628Z,0
2023-01-21T16:07:18.119Z,0
2023-01-21T16:08:21.499Z,0
2023-01-21T16:09:24.210Z,0
2023-01-21T16:10:27.145Z,0
2023-01-21T16:12:33.656Z,0
2023-01-21T16:13:36.949Z,0
2023-01-21T16:15:43.783Z,0
2023-01-21T16:16:46.620Z,0
2023-01-21T16:17:50.398Z,0
2023-01-21T16:18:54.302Z,0
2023-01-21T16:21:00.552Z,0
2023-01-21T16:22:03.946Z,0
2023-01-21T16:24:10.575Z,0
2023-01-21T16:26:16.714Z,0
2023-01-21T16:27:19.816Z,0
2023-01-21T16:28:22.403Z,0
2023-01-21T16:29:26.096Z,0
2023-01-21T16:31:34.303Z,0
2023-01-21T16:32:37.115Z,0
2023-01-21T16:33:40.532Z,0
2023-01-21T16:34:44.026Z,0
2023-01-21T16:35:47.782Z,0
2023-01-21T16:37:54.042Z,0
2023-01-21T16:40:01.178Z,0
2023-01-21T16:41:04.447Z,0
2023-01-21T16:43:10.517Z,0
2023-01-21T16:45:19.680Z,0
2023-01-21T16:46:23.545Z,0
2023-01-21T16:48:29.784Z,0
2023-01-21T16:50:36.265Z,0
2023-01-21T16:51:39.585Z,0
2023-01-21T16:53:46.038Z,0
2023-01-21T16:55:52.291Z,0
2023-01-21T16:56:54.791Z,0
2023-01-21T16:57:58.569Z,0
2023-01-21T16:59:01.858Z,0
2023-01-21T17:01:08.642Z,0
2023-01-21T17:03:14.351Z,0
2023-01-21T17:04:17.821Z,0
2023-01-21T17:06:24.355Z,0
2023-01-21T17:08:31.546Z,0
2023-01-21T17:09:34.985Z,0
2023-01-21T17:10:38.779Z,0
2023-01-21T17:11:41.804Z,0
2023-01-21T17:13:48.789Z,0
2023-01-21T17:14:51.864Z,0
2023-01-21T17:16:58.888Z,0
2023-01-21T17:19:05.728Z,0
2023-01-21T17:21:12.587Z,0
2023-01-21T17:22:15.585Z,0
2023-01-21T17:24:22.686Z,0
2023-01-21T17:26:28.865Z,0
2023-01-21T17:27:31.957Z,0
2023-01-21T17:29:39.004Z,0
2023-01-21T17:31:46.904Z,0
2023-01-21T17:32:50.327Z,0
2023-01-21T17:34:57.358Z,0
2023-01-21T17:37:02.744Z,0
2023-01-21T17:39:09.733Z,0
2023-01-21T17:40:13.591Z,0
2023-01-21T17:42:19.683Z,0
2023-01-21T17:43:23.397Z,0
2023-01-21T17:44:26.571Z,0
2023-01-21T17:45:30.199Z,0
2023-01-21T17:48:15.923Z,0
2023-01-21T17:49:20.165Z,0
2023-01-21T17:50:23.125Z,0
2023-01-21T17:52:31.320Z,0
2023-01-21T17:53:34.380Z,0
2023-01-21T17:55:40.708Z,0
2023-01-21T17:57:47.812Z,0
2023-01-21T17:58:51.491Z,0
2023-01-21T18:00:57.488Z,0
2023-01-21T18:02:01.744Z,0
2023-01-21T18:03:05.423Z,0
2023-01-21T18:04:08.739Z,0
2023-01-21T18:06:14.717Z,0
2023-01-21T18:07:18.513Z,0
2023-01-21T18:08:22.224Z,0
2023-01-21T18:09:25.295Z,0
2023-01-21T18:11:32.618Z,0
2023-01-21T18:12:35.629Z,0
2023-01-21T18:14:42.144Z,0
2023-01-21T18:16:49.057Z,0
2023-01-21T18:17:51.865Z,0
2023-01-21T18:18:54.868Z,0
2023-01-21T18:20:00.261Z,0
2023-01-21T18:22:05.909Z,0
2023-01-21T18:23:08.913Z,0
2023-01-21T18:24:12.416Z,0
2023-01-21T18:25:16.990Z,0
2023-01-21T18:27:27.995Z,0
2023-01-21T18:29:34.749Z,0
2023-01-21T18:30:38.167Z,0
2023-01-21T18:32:45.809Z,0
2023-01-21T18:34:52.453Z,0
2023-01-21T18:36:58.871Z,0
2023-01-21T18:38:01.860Z,0
2023-01-21T18:40:07.727Z,0
2023-01-21T18:42:13.963Z,0
2023-01-21T18:44:20.553Z,0
2023-01-21T18:45:23.726Z,0
2023-01-21T18:47:31.059Z,0
2023-01-21T18:49:37.404Z,0
2023-01-21T18:50:39.841Z,0
2023-01-21T18:51:43.329Z,0
2023-01-21T18:52:45.816Z,0
2023-01-21T18:54:52.204Z,0
2023-01-21T18:55:56.000Z,0
2023-01-21T18:56:59.116Z,0
2023-01-21T18:58:02.361Z,0
2023-01-21T19:00:09.633Z,0
2023-01-21T19:01:26.002Z,0
2023-01-21T19:02:28.605Z,0
2023-01-21T19:03:31.965Z,0
2023-01-21T19:05:37.837Z,0
2023-01-21T19:07:43.961Z,0
2023-01-21T19:08:47.599Z,0
2023-01-21T19:09:50.665Z,0
2023-01-21T19:10:53.933Z,0
2023-01-21T19:12:59.710Z,0
2023-01-21T19:14:02.694Z,0
2023-01-21T19:15:06.514Z,0
2023-01-21T19:16:10.186Z,0
2023-01-21T19:18:17.769Z,0
2023-01-21T19:20:24.566Z,0
2023-01-21T19:21:27.354Z,0
2023-01-21T19:23:33.536Z,0
2023-01-21T19:25:39.773Z,0
2023-01-21T19:27:45.767Z,0
2023-01-21T19:28:49.254Z,0
2023-01-21T19:30:56.301Z,0
2023-01-21T19:33:02.916Z,0
2023-01-21T19:34:05.952Z,0
2023-01-21T19:35:09.310Z,0
2023-01-21T19:36:12.321Z,0
2023-01-21T19:38:18.680Z,0
2023-01-21T19:39:22.357Z,0
2023-01-21T19:40:25.635Z,0
2023-01-21T19:41:28.433Z,0
2023-01-21T19:43:34.641Z,0
2023-01-21T19:44:37.664Z,0
2023-01-21T19:45:40.693Z,0
2023-01-21T19:46:44.701Z,0
2023-01-21T19:48:50.743Z,0
2023-01-21T19:49:54.129Z,0
2023-01-21T19:50:57.895Z,0
2023-01-21T19:52:01.088Z,0
2023-01-21T19:54:07.175Z,0
2023-01-21T19:55:10.444Z,0
2023-01-21T19:56:13.021Z,0
2023-01-21T19:57:16.729Z,0
2023-01-21T19:59:23.033Z,0
2023-01-21T20:00:26.227Z,0
2023-01-21T20:02:33.611Z,0
2023-01-21T20:04:40.960Z,0
2023-01-21T20:06:47.706Z,0
2023-01-21T20:07:51.070Z,0
2023-01-21T20:09:57.222Z,0
2023-01-21T20:12:07.903Z,0
2023-01-21T20:14:13.431Z,0
2023-01-21T20:15:18.305Z,0
2023-01-21T20:17:24.907Z,0
2023-01-21T20:19:31.729Z,0
2023-01-21T20:22:04.392Z,0
2023-01-21T20:24:11.176Z,0
2023-01-21T20:25:14.206Z,0
2023-01-21T20:27:20.664Z,0
2023-01-21T20:29:27.699Z,0
2023-01-21T20:30:33.875Z,0
2023-01-21T20:31:36.960Z,0
2023-01-21T20:32:39.564Z,0
2023-01-21T20:34:48.739Z,0
2023-01-21T20:35:51.953Z,0
2023-01-21T20:36:55.438Z,0
2023-01-21T20:37:58.734Z,0
2023-01-21T20:40:04.259Z,0
2023-01-21T20:41:07.471Z,0
2023-01-21T20:42:10.806Z,0
2023-01-21T20:43:14.784Z,0
2023-01-21T20:45:22.447Z,0
2023-01-21T20:46:25.474Z,0
2023-01-21T20:47:51.801Z,0
2023-01-21T20:48:55.651Z,0
2023-01-21T20:51:02.375Z,0
2023-01-21T20:53:08.860Z,0
2023-01-21T20:55:14.246Z,0
2023-01-21T20:56:17.911Z,0
2023-01-21T20:58:23.342Z,0
2023-01-21T21:00:29.618Z,0
2023-01-21T21:02:36.679Z,0
2023-01-21T21:03:39.490Z,0
2023-01-21T21:05:46.464Z,0
2023-01-21T21:07:52.932Z,0
2023-01-21T21:09:59.321Z,0
2023-01-21T21:11:02.982Z,0
2023-01-21T21:13:09.512Z,0
2023-01-21T21:15:17.134Z,0
2023-01-21T21:16:20.642Z,0
2023-01-21T21:17:24.013Z,0
2023-01-21T21:18:27.156Z,0
2023-01-21T21:20:34.638Z,0
2023-01-21T21:21:37.673Z,0
2023-01-21T21:22:41.321Z,0
2023-01-21T21:23:44.947Z,0
2023-01-21T21:25:52.001Z,0
2023-01-21T21:27:58.625Z,0
2023-01-21T21:29:01.128Z,0
2023-01-21T21:31:08.233Z,0
2023-01-21T21:33:17.517Z,0
2023-01-21T21:35:23.960Z,0
2023-01-21T21:36:28.176Z,0
2023-01-21T21:38:34.756Z,0
2023-01-21T21:40:40.310Z,0
2023-01-21T21:42:46.002Z,0
2023-01-21T21:43:49.101Z,0
2023-01-21T21:45:55.310Z,0
2023-01-21T21:48:01.085Z,0
2023-01-21T21:50:08.190Z,0
2023-01-21T21:51:11.565Z,0
2023-01-21T21:53:18.719Z,0
2023-01-21T21:55:26.323Z,0
2023-01-21T21:57:32.938Z,0
2023-01-21T21:58:35.917Z,0
2023-01-21T22:00:42.297Z,0
2023-01-21T22:02:49.941Z,0
2023-01-21T22:04:56.788Z,0
2023-01-21T22:06:00.139Z,0
2023-01-21T22:08:06.685Z,0
2023-01-21T22:10:13.109Z,0
2023-01-21T22:11:16.121Z,0
2023-01-21T22:12:19.845Z,0
2023-01-21T22:13:22.908Z,0
2023-01-21T22:15:29.593Z,0
2023-01-21T22:17:37.072Z,0
2023-01-21T22:18:40.538Z,0
2023-01-21T22:20:46.922Z,0
2023-01-21T22:22:52.828Z,0
2023-01-21T22:23:56.341Z,0
2023-01-21T22:25:00.021Z,0
2023-01-21T22:26:03.273Z,0
2023-01-21T22:28:08.952Z,0
2023-01-21T22:30:16.105Z,0
2023-01-21T22:31:20.052Z,0
2023-01-21T22:33:26.549Z,0
2023-01-21T22:35:31.961Z,0
2023-01-21T22:37:38.031Z,0
2023-01-21T22:38:42.971Z,0
2023-01-21T22:40:50.529Z,0
2023-01-21T22:42:57.549Z,0
2023-01-21T22:45:03.534Z,0
2023-01-21T22:46:07.932Z,0
2023-01-21T22:48:14.146Z,0
2023-01-21T22:50:21.833Z,0
2023-01-21T22:52:29.504Z,0
2023-01-21T22:53:32.899Z,0
2023-01-21T22:55:40.130Z,0
2023-01-21T22:56:54.549Z,0
2023-01-21T22:57:58.263Z,0
2023-01-21T23:00:04.572Z,0
2023-01-21T23:01:07.390Z,0
2023-01-21T23:03:14.215Z,0
2023-01-21T23:05:23.375Z,0
2023-01-21T23:07:29.248Z,0
2023-01-21T23:08:33.261Z,0
2023-01-21T23:10:39.406Z,0
2023-01-21T23:12:46.909Z,0
2023-01-21T23:14:53.256Z,0
2023-01-21T23:15:57.284Z,0
2023-01-21T23:18:03.926Z,0
2023-01-21T23:20:10.776Z,0
2023-01-21T23:22:16.644Z,0
2023-01-21T23:23:20.234Z,0
2023-01-21T23:24:23.654Z,0
2023-01-21T23:25:27.272Z,0
2023-01-21T23:27:34.121Z,0
2023-01-21T23:28:37.851Z,0
2023-01-21T23:29:41.353Z,0
2023-01-21T23:30:45.593Z,0
2023-01-21T23:32:52.905Z,0
2023-01-21T23:34:59.510Z,0
2023-01-21T23:36:03.424Z,0
2023-01-21T23:38:10.134Z,0
2023-01-21T23:40:18.553Z,0
2023-01-21T23:42:25.618Z,0
2023-01-21T23:43:29.646Z,0
2023-01-21T23:45:36.507Z,0
2023-01-21T23:47:42.601Z,0
2023-01-21T23:49:48.574Z,0
2023-01-21T23:50:51.741Z,0
2023-01-21T23:52:58.538Z,0
2023-01-21T23:55:05.589Z,0